createdAt,value
2023-04-12T00:04:16.610Z,100965.75
2023-04-12T00:09:19.919Z,100963.31
2023-04-12T00:14:23.103Z,100948.31
2023-04-12T00:19:27.912Z,100939.00
2023-04-12T00:24:30.791Z,100939.34
2023-04-12T00:29:33.869Z,100934.03
2023-04-12T00:34:36.393Z,100926.84
2023-04-12T00:39:39.257Z,100940.03
2023-04-12T00:44:42.017Z,100921.28
2023-04-12T00:49:44.892Z,100908.59
2023-04-12T00:54:47.774Z,100926.06
2023-04-12T00:59:52.499Z,100934.03
2023-04-12T01:04:55.124Z,100937.47
2023-04-12T01:10:22.408Z,100912.63
2023-04-12T01:15:26.992Z,100902.47
2023-04-12T01:20:36.315Z,100897.75
2023-04-12T01:26:03.161Z,100887.97
2023-04-12T01:31:09.041Z,100898.88
2023-04-12T01:36:14.731Z,100884.19
2023-04-12T01:41:17.395Z,100856.25
2023-04-12T01:46:23.390Z,100866.16
2023-04-12T01:51:57.086Z,100859.41
2023-04-12T01:57:05.098Z,100861.88
2023-04-12T02:02:09.756Z,100843.59
2023-04-12T02:07:14.863Z,100831.13
2023-04-12T02:12:17.622Z,100814.22
2023-04-12T02:17:21.388Z,100811.63
2023-04-12T02:22:24.475Z,100815.59
2023-04-12T02:27:27.714Z,100818.44
2023-04-12T02:32:31.287Z,100820.94
2023-04-12T02:37:34.161Z,100820.03
2023-04-12T02:42:37.267Z,100817.91
2023-04-12T02:47:41.890Z,100812.16
2023-04-12T02:52:47.250Z,100816.59
2023-04-12T02:57:50.599Z,100806.59
2023-04-12T03:02:54.280Z,100811.22
2023-04-12T03:08:03.088Z,100805.84
2023-04-12T03:13:14.842Z,100776.44
2023-04-12T03:18:22.018Z,100774.81
2023-04-12T03:23:26.463Z,100780.00
2023-04-12T03:28:45.994Z,100769.66
2023-04-12T03:33:49.096Z,100769.81
2023-04-12T03:38:58.550Z,100764.88
2023-04-12T03:44:01.967Z,100760.13
2023-04-12T03:49:06.455Z,100753.91
2023-04-12T03:54:11.152Z,100764.13
2023-04-12T03:59:29.892Z,100757.81
2023-04-12T04:04:33.734Z,100766.75
2023-04-12T04:09:41.878Z,100744.22
2023-04-12T04:14:46.394Z,100744.69
2023-04-12T04:19:58.999Z,100753.09
2023-04-12T04:25:02.669Z,100748.81
2023-04-12T04:30:10.723Z,100752.38
2023-04-12T04:35:19.123Z,100757.94
2023-04-12T04:40:44.773Z,100770.22
2023-04-12T04:45:49.721Z,100773.53
2023-04-12T04:50:53.856Z,100780.59
2023-04-12T04:55:59.721Z,100772.41
2023-04-12T05:01:07.746Z,100786.69
2023-04-12T05:06:11.636Z,100785.50
2023-04-12T05:11:14.719Z,100761.66
2023-04-12T05:16:17.410Z,100772.25
2023-04-12T05:21:20.084Z,100773.75
2023-04-12T05:26:24.433Z,100759.72
2023-04-12T05:31:28.956Z,100771.75
2023-04-12T05:36:34.908Z,100764.78
2023-04-12T05:41:39.508Z,100763.03
2023-04-12T05:46:42.501Z,100748.53
2023-04-12T05:51:45.360Z,100744.66
2023-04-12T05:56:55.712Z,100725.19
2023-04-12T06:02:01.144Z,100726.75
2023-04-12T06:07:07.928Z,100736.03
2023-04-12T06:12:13.790Z,100715.88
2023-04-12T06:17:18.591Z,100700.97
2023-04-12T06:22:21.442Z,100701.97
2023-04-12T06:27:25.931Z,100692.59
2023-04-12T06:32:29.214Z,100679.53
2023-04-12T06:37:32.247Z,100681.63
2023-04-12T06:42:35.641Z,100665.72
2023-04-12T06:47:38.504Z,100653.88
2023-04-12T06:52:41.271Z,100654.00
2023-04-12T06:57:44.986Z,100660.53
2023-04-12T07:02:47.725Z,100650.72
2023-04-12T07:07:50.727Z,100650.00
2023-04-12T07:12:53.463Z,100624.16
2023-04-12T07:17:56.564Z,100621.88
2023-04-12T07:23:00.828Z,100625.69
2023-04-12T07:28:03.816Z,100604.44
2023-04-12T07:33:18.433Z,100605.16
2023-04-12T07:38:21.838Z,100605.00
2023-04-12T07:43:24.653Z,100609.63
2023-04-12T07:48:27.320Z,100587.16
2023-04-12T07:53:29.968Z,100571.38
2023-04-12T07:58:33.853Z,100589.41
2023-04-12T08:03:39.065Z,100566.72
2023-04-12T08:08:42.657Z,100567.44
2023-04-12T08:13:46.688Z,100538.38
2023-04-12T08:18:50.448Z,100532.34
2023-04-12T08:23:53.010Z,100531.44
2023-04-12T08:28:56.005Z,100544.72
2023-04-12T08:34:00.143Z,100534.47
2023-04-12T08:39:03.523Z,100537.69
2023-04-12T08:44:06.310Z,100537.09
2023-04-12T08:49:09.141Z,100521.03
2023-04-12T08:54:11.760Z,100521.63
2023-04-12T08:59:16.605Z,100505.25
2023-04-12T09:04:19.285Z,100489.41
2023-04-12T09:09:45.168Z,100490.25
2023-04-12T09:14:47.904Z,100491.38
2023-04-12T09:19:51.050Z,100485.59
2023-04-12T09:24:53.837Z,100469.84
2023-04-12T09:30:10.283Z,100469.72
2023-04-12T09:35:12.884Z,100459.50
2023-04-12T09:40:17.119Z,100448.31
2023-04-12T09:45:26.709Z,100439.44
2023-04-12T09:50:33.731Z,100430.59
2023-04-12T09:55:37.292Z,100422.00
2023-04-12T10:00:40.869Z,100394.44
2023-04-12T10:05:43.599Z,100387.69
2023-04-12T10:10:47.032Z,100369.88
2023-04-12T10:15:52.310Z,100366.28
2023-04-12T10:20:55.904Z,100367.97
2023-04-12T10:26:00.442Z,100362.84
2023-04-12T10:31:30.859Z,100350.78
2023-04-12T10:36:56.771Z,100333.66
2023-04-12T10:42:23.208Z,100349.28
2023-04-12T10:47:49.189Z,100341.31
2023-04-12T10:53:13.003Z,100328.94
2023-04-12T10:58:51.587Z,100319.28
2023-04-12T11:04:16.567Z,100313.53
2023-04-12T11:09:29.701Z,100302.28
2023-04-12T11:14:43.986Z,100290.72
2023-04-12T11:19:53.824Z,100279.25
2023-04-12T11:25:00.099Z,100253.31
2023-04-12T11:30:05.633Z,100263.66
2023-04-12T11:35:13.284Z,100252.97
2023-04-12T11:40:16.307Z,100242.56
2023-04-12T11:45:21.849Z,100226.75
2023-04-12T11:50:31.292Z,100211.09
2023-04-12T11:55:34.528Z,100200.56
2023-04-12T12:00:38.832Z,100196.06
2023-04-12T12:11:37.167Z,100160.91
2023-04-12T12:16:42.194Z,100162.69
2023-04-12T12:21:47.562Z,100144.56
2023-04-12T12:26:52.177Z,100142.31
2023-04-12T12:31:58.562Z,100168.88
2023-04-12T12:37:09.548Z,100147.06
2023-04-12T12:42:16.134Z,100170.50
2023-04-12T12:47:20.859Z,100174.44
2023-04-12T12:52:23.898Z,100193.31
2023-04-12T12:57:29.015Z,100183.38
2023-04-12T13:02:32.568Z,100223.47
2023-04-12T13:07:36.509Z,100175.09
2023-04-12T13:12:42.327Z,100171.81
2023-04-12T13:17:45.275Z,100173.44
2023-04-12T13:22:48.385Z,100161.41
2023-04-12T13:28:10.301Z,100172.00
2023-04-12T13:33:19.153Z,100158.41
2023-04-12T13:38:23.849Z,100187.19
2023-04-12T13:43:26.901Z,100172.47
2023-04-12T13:48:29.737Z,100169.13
2023-04-12T13:53:32.657Z,100175.13
2023-04-12T13:58:35.637Z,100185.72
2023-04-12T14:03:57.397Z,100166.47
2023-04-12T14:09:00.259Z,100164.28
2023-04-12T14:14:03.716Z,100150.09
2023-04-12T14:19:11.993Z,100124.09
2023-04-12T14:24:19.117Z,100128.41
2023-04-12T14:29:22.902Z,100144.53
2023-04-12T14:34:25.814Z,100114.28
2023-04-12T14:39:31.173Z,100120.44
2023-04-12T14:44:35.893Z,100128.38
2023-04-12T14:49:42.175Z,100125.44
2023-04-12T14:54:45.986Z,100107.97
2023-04-12T14:59:48.843Z,100125.97
2023-04-12T15:04:52.096Z,100122.97
2023-04-12T15:09:57.585Z,100120.84
2023-04-12T15:15:01.021Z,100121.38
2023-04-12T15:20:11.820Z,100105.28
2023-04-12T15:25:15.639Z,100090.66
2023-04-12T15:30:19.947Z,100091.78
2023-04-12T15:35:26.835Z,100100.63
2023-04-12T15:40:33.312Z,100101.97
2023-04-12T15:45:36.124Z,100090.34
2023-04-12T15:50:41.411Z,100113.88
2023-04-12T15:55:58.716Z,100106.16
2023-04-12T16:01:01.538Z,100115.91
2023-04-12T16:06:07.870Z,100118.75
2023-04-12T16:11:12.520Z,100108.16
2023-04-12T16:16:18.279Z,100096.75
2023-04-12T16:21:45.184Z,100135.06
2023-04-12T16:27:05.091Z,100118.44
2023-04-12T16:32:25.864Z,100105.50
2023-04-12T16:37:42.673Z,100130.25
2023-04-12T16:42:46.256Z,100143.75
2023-04-12T16:47:50.028Z,100138.44
2023-04-12T16:53:12.060Z,100145.47
2023-04-12T16:58:15.993Z,100151.59
2023-04-12T17:03:21.806Z,100147.69
2023-04-12T17:08:24.660Z,100134.91
2023-04-12T17:13:31.113Z,100128.88
2023-04-12T17:18:35.014Z,100140.81
2023-04-12T17:23:38.091Z,100112.81
2023-04-12T17:28:41.822Z,100097.91
2023-04-12T17:33:45.341Z,100078.66
2023-04-12T17:38:48.151Z,100066.09
2023-04-12T17:43:51.119Z,100070.28
2023-04-12T17:48:53.851Z,100051.31
2023-04-12T17:54:00.850Z,100047.88
2023-04-12T17:59:05.867Z,100032.03
2023-04-12T18:04:09.661Z,100012.41
2023-04-12T18:09:13.155Z,100018.88
2023-04-12T18:14:16.312Z,100007.69
2023-04-12T18:19:19.505Z,100003.00
2023-04-12T18:24:23.589Z,100003.44
2023-04-12T18:29:26.853Z,99993.09
2023-04-12T18:34:30.807Z,99991.94
2023-04-12T18:39:36.211Z,99997.22
2023-04-12T18:44:42.406Z,99981.50
2023-04-12T18:49:46.019Z,99992.28
2023-04-12T18:54:48.768Z,99984.78
2023-04-12T18:59:51.650Z,99969.31
2023-04-12T19:04:55.762Z,99970.16
2023-04-12T19:09:58.497Z,99957.97
2023-04-12T19:15:01.988Z,99967.44
2023-04-12T19:20:08.247Z,99932.75
2023-04-12T19:25:12.569Z,99919.75
2023-04-12T19:30:17.286Z,99898.31
2023-04-12T19:35:20.259Z,99888.34
2023-04-12T19:40:22.977Z,99878.03
2023-04-12T19:45:27.926Z,99872.88
2023-04-12T19:50:31.429Z,99890.53
2023-04-12T19:55:34.174Z,99898.28
2023-04-12T20:00:39.570Z,99897.66
2023-04-12T20:05:46.416Z,99909.16
2023-04-12T20:10:49.972Z,99888.00
2023-04-12T20:15:52.980Z,99871.44
2023-04-12T20:21:00.038Z,99892.09
2023-04-12T20:26:02.844Z,99885.31
2023-04-12T20:31:06.365Z,99902.38
2023-04-12T20:36:10.236Z,99886.53
2023-04-12T20:41:13.406Z,99884.91
2023-04-12T20:46:19.526Z,99854.78
2023-04-12T20:51:22.750Z,99855.00
2023-04-12T20:56:27.052Z,99852.75
2023-04-12T21:01:29.794Z,99863.69
2023-04-12T21:06:34.683Z,99857.25
2023-04-12T21:11:37.940Z,99830.13
2023-04-12T21:16:54.543Z,99830.47
2023-04-12T21:22:01.269Z,99823.53
2023-04-12T21:27:06.962Z,99812.19
2023-04-12T21:32:10.252Z,99793.09
2023-04-12T21:37:13.379Z,99784.06
2023-04-12T21:42:15.915Z,99787.34
2023-04-12T21:47:19.812Z,99783.63
2023-04-12T21:52:22.503Z,99765.47
2023-04-12T21:57:25.244Z,99761.47
2023-04-12T22:02:28.284Z,99748.00
2023-04-12T22:07:30.985Z,99738.50
2023-04-12T22:12:34.145Z,99731.94
2023-04-12T22:17:37.869Z,99709.81
2023-04-12T22:22:41.046Z,99714.13
2023-04-12T22:27:46.796Z,99706.28
2023-04-12T22:32:49.534Z,99676.56
2023-04-12T22:38:12.583Z,99673.03
2023-04-12T22:43:21.115Z,99661.66
2023-04-12T22:48:25.230Z,99649.13
2023-04-12T22:53:46.910Z,99651.72
2023-04-12T22:58:49.520Z,99634.88
2023-04-12T23:03:52.275Z,99641.56
2023-04-12T23:08:55.012Z,99644.00
2023-04-12T23:14:18.165Z,99649.41
2023-04-12T23:19:21.019Z,99637.19
2023-04-12T23:24:42.551Z,99630.31
2023-04-12T23:30:04.911Z,99622.13
2023-04-12T23:35:08.016Z,99608.75
2023-04-12T23:40:30.765Z,99615.78
2023-04-12T23:45:33.291Z,99601.97
2023-04-12T23:50:36.976Z,99604.19
2023-04-12T23:55:40.258Z,99590.03
